Time;durP1;ratioP1;P1;durP2;ratioP2;P2;SDS_P1;SDS_P2;PMS_P1;PMS_P2;Temp;Humidity;BMP_temperature;BMP_pressure;BME280_temperature;BME280_humidity;BME280_pressure;Samples;Min_cycle;Max_cycle;Signal;HPM_P1;HPM_P2
2022/11/22 00:01:42;;;;;;;0.50;0.30;;;;;;;10.81;93.65;94634.66;5112412;28;20512;-52
2022/11/22 00:04:10;;;;;;;1.77;0.40;;;;;;;10.02;91.29;94643.28;5112324;28;20460;-52
2022/11/22 00:06:38;;;;;;;0.30;0.27;;;;;;;9.96;93.10;94643.63;5112156;28;20525;-52
2022/11/22 00:09:07;;;;;;;0.40;0.30;;;;;;;9.11;98.03;94653.16;5112458;28;20823;-52
2022/11/22 00:11:35;;;;;;;1.70;0.83;;;;;;;8.84;98.39;94661.50;5112375;28;20434;-52
2022/11/22 00:14:05;;;;;;;1.60;1.50;;;;;;;8.64;100.00;94665.06;5112107;28;20418;-52
2022/11/22 00:16:33;;;;;;;0.80;0.80;;;;;;;8.69;98.10;94658.94;5112305;28;20421;-52
2022/11/22 00:19:02;;;;;;;8.13;0.50;;;;;;;8.99;100.00;94663.25;5112067;28;20435;-52
2022/11/22 00:21:30;;;;;;;0.30;0.20;;;;;;;9.03;97.79;94651.09;5111914;28;20516;-52
2022/11/22 00:23:58;;;;;;;0.40;0.40;;;;;;;8.79;97.42;94656.25;5111865;28;20999;-52
2022/11/22 00:26:27;;;;;;;0.40;0.30;;;;;;;9.36;99.91;94664.28;5112248;28;20799;-52
2022/11/22 00:28:55;;;;;;;0.30;0.30;;;;;;;9.05;95.20;94668.25;5111945;28;20498;-52
2022/11/22 00:31:25;;;;;;;0.40;0.30;;;;;;;9.22;92.74;94668.66;5112157;28;20424;-52
2022/11/22 00:33:53;;;;;;;0.50;0.50;;;;;;;9.62;95.17;94670.16;5112203;28;20902;-52
2022/11/22 00:36:21;;;;;;;0.40;0.40;;;;;;;9.61;90.14;94668.59;5111776;28;20443;-52
2022/11/22 00:38:49;;;;;;;0.30;0.20;;;;;;;9.72;87.97;94662.13;5112232;28;20504;-53
2022/11/22 00:41:18;;;;;;;0.30;0.20;;;;;;;9.93;91.02;94666.16;5111814;28;20435;-52
2022/11/22 00:43:46;;;;;;;0.30;0.20;;;;;;;9.94;94.45;94665.06;5111947;28;20424;-53
2022/11/22 00:46:14;;;;;;;0.40;0.20;;;;;;;10.14;91.39;94669.41;5111996;28;20523;-53
2022/11/22 00:48:44;;;;;;;0.40;0.30;;;;;;;10.10;90.49;94674.44;5112105;28;20421;-52
2022/11/22 00:51:12;;;;;;;0.30;0.20;;;;;;;9.62;93.75;94672.81;5111700;28;20432;-53
2022/11/22 00:53:40;;;;;;;0.40;0.30;;;;;;;9.30;90.97;94689.22;5112015;28;20498;-53
2022/11/22 00:56:09;;;;;;;0.30;0.20;;;;;;;9.59;88.74;94686.59;5111671;28;20436;-52
2022/11/22 00:58:37;;;;;;;0.30;0.30;;;;;;;9.26;87.33;94693.47;5115601;28;20424;-52
2022/11/22 01:01:05;;;;;;;0.30;0.30;;;;;;;9.27;85.73;94694.25;5115126;27;20523;-52
2022/11/22 01:03:33;;;;;;;0.40;0.30;;;;;;;8.54;86.75;94699.44;5094952;28;20925;-52
2022/11/22 01:06:03;;;;;;;0.30;0.20;;;;;;;8.70;94.87;94706.22;5095052;28;20476;-52
2022/11/22 01:08:31;;;;;;;0.30;0.27;;;;;;;9.31;94.80;94690.78;5094848;28;20511;-52
2022/11/22 01:11:01;;;;;;;0.40;0.20;;;;;;;9.55;89.39;94686.38;5094739;28;20431;-53
2022/11/22 01:13:29;;;;;;;0.40;0.30;;;;;;;9.13;88.83;94678.25;5094722;28;20929;-53
2022/11/22 01:16:00;;;;;;;0.40;0.30;;;;;;;9.01;89.19;94691.00;5093713;28;20436;-53
2022/11/22 01:18:28;;;;;;;0.30;0.20;;;;;;;9.32;90.67;94707.44;5094898;28;20439;-52
2022/11/22 01:20:56;;;;;;;0.60;0.30;;;;;;;9.35;85.18;94701.59;5094686;28;20432;-53
2022/11/22 01:23:26;;;;;;;0.30;0.20;;;;;;;9.52;88.11;94702.78;5094473;28;20440;-53
2022/11/22 01:25:54;;;;;;;0.30;0.20;;;;;;;9.25;84.59;94702.47;5094763;28;20475;-53
2022/11/22 01:28:23;;;;;;;0.60;0.57;;;;;;;9.03;85.54;94698.66;5094416;28;20468;-53
2022/11/22 01:30:52;;;;;;;0.30;0.20;;;;;;;8.70;92.05;94705.44;5094393;28;20421;-52
2022/11/22 01:33:21;;;;;;;0.30;0.20;;;;;;;8.63;89.18;94702.28;5094352;28;20751;-53
2022/11/22 01:35:49;;;;;;;0.30;0.20;;;;;;;9.01;90.11;94706.06;5094259;28;20420;-52
2022/11/22 01:38:17;;;;;;;0.40;0.30;;;;;;;9.26;88.99;94704.03;5094225;28;20506;-53
2022/11/22 01:40:47;;;;;;;0.33;0.27;;;;;;;8.77;84.55;94703.28;5094564;28;20420;-53
2022/11/22 01:43:18;;;;;;;0.37;0.27;;;;;;;8.44;86.96;94706.63;5094309;28;20508;-52
2022/11/22 01:45:50;;;;;;;0.30;0.20;;;;;;;8.64;89.54;94709.97;5094151;28;20462;-53
2022/11/22 01:48:31;;;;;;;0.73;0.73;;;;;;;8.68;91.79;94716.28;5094451;28;20424;-53
2022/11/22 01:51:06;;;;;;;0.87;0.87;;;;;;;9.17;92.20;94708.34;5094590;28;20440;-53
2022/11/22 01:53:38;;;;;;;0.30;0.20;;;;;;;8.49;83.99;94704.75;5094213;28;20439;-53
2022/11/22 01:56:14;;;;;;;0.40;0.20;;;;;;;8.95;90.73;94716.66;5093936;28;20973;-52
2022/11/22 01:58:47;;;;;;;0.30;0.20;;;;;;;8.98;86.76;94717.97;5093535;28;20920;-52
2022/11/22 02:01:15;;;;;;;0.30;0.20;;;;;;;8.71;100.00;94691.97;5093887;28;20906;-52
2022/11/22 02:03:47;;;;;;;0.30;0.20;;;;;;;9.27;92.62;94716.19;5093674;28;20464;-53
2022/11/22 02:06:16;;;;;;;0.53;0.50;;;;;;;9.40;100.00;94723.50;5093607;28;20990;-53
2022/11/22 02:08:52;;;;;;;0.43;0.43;;;;;;;8.18;87.81;94713.78;5093099;28;20427;-53
2022/11/22 02:11:23;;;;;;;0.60;0.60;;;;;;;8.77;92.95;94737.66;5093673;28;20421;-53
2022/11/22 02:13:57;;;;;;;0.30;0.30;;;;;;;8.37;88.71;94730.69;5093472;28;20424;-53
2022/11/22 02:16:25;;;;;;;0.30;0.20;;;;;;;8.92;100.00;94732.28;5093502;28;20432;-53
2022/11/22 02:18:53;;;;;;;0.50;0.30;;;;;;;8.65;90.87;94734.53;5093504;28;20416;-53
2022/11/22 02:21:22;;;;;;;0.43;0.30;;;;;;;9.03;100.00;94725.88;5093397;28;20441;-53
2022/11/22 02:24:00;;;;;;;0.30;0.20;;;;;;;8.69;87.71;94738.19;5093546;28;20460;-53
2022/11/22 02:26:32;;;;;;;0.30;0.20;;;;;;;8.47;86.95;94728.00;5093563;28;20842;-53
2022/11/22 02:29:05;;;;;;;0.40;0.30;;;;;;;8.56;83.79;94736.13;5093301;28;20468;-53
2022/11/22 02:31:36;;;;;;;0.30;0.20;;;;;;;8.97;93.06;94740.19;5093505;28;20516;-53
2022/11/22 02:34:04;;;;;;;0.30;0.20;;;;;;;8.49;87.63;94752.28;5093173;28;20432;-53
2022/11/22 02:36:37;;;;;;;0.40;0.30;;;;;;;8.52;94.64;94753.59;5093596;28;20428;-53
2022/11/22 02:39:07;;;;;;;0.40;0.40;;;;;;;7.75;87.24;94748.69;5093117;28;20429;-53
2022/11/22 02:41:38;;;;;;;0.30;0.20;;;;;;;7.79;93.29;94744.50;5093058;28;20439;-53
2022/11/22 02:44:08;;;;;;;0.40;0.30;;;;;;;8.43;91.86;94740.16;5093295;28;20433;-53
2022/11/22 02:46:45;;;;;;;0.30;0.20;;;;;;;8.99;95.74;94734.63;5092781;28;20938;-53
2022/11/22 02:49:16;;;;;;;0.53;0.53;;;;;;;9.00;89.45;94737.00;5093196;28;20504;-53
2022/11/22 02:51:45;;;;;;;0.40;0.30;;;;;;;8.54;88.75;94744.34;5093189;28;20448;-53
2022/11/22 02:54:13;;;;;;;0.60;0.50;;;;;;;8.01;88.74;94748.41;5093139;28;20436;-53
2022/11/22 02:56:43;;;;;;;0.43;0.40;;;;;;;7.38;91.20;94754.25;5092764;28;20509;-53
2022/11/22 02:59:11;;;;;;;0.40;0.30;;;;;;;7.67;100.00;94752.66;5093069;28;20449;-53
2022/11/22 03:01:40;;;;;;;0.50;0.43;;;;;;;8.12;100.00;94746.56;5092980;28;20425;-53
2022/11/22 03:04:08;;;;;;;0.50;0.40;;;;;;;8.14;94.15;94750.50;5093243;28;20495;-53
2022/11/22 03:06:37;;;;;;;0.90;0.90;;;;;;;7.93;92.25;94758.72;5091954;28;20495;-53
2022/11/22 03:09:05;;;;;;;0.70;0.70;;;;;;;8.52;99.21;94748.31;5092331;28;20421;-53
2022/11/22 03:11:33;;;;;;;0.53;0.53;;;;;;;8.42;97.13;94751.78;5092758;28;20424;-53
2022/11/22 03:14:03;;;;;;;2.00;0.50;;;;;;;8.68;97.96;94750.63;5092471;28;21114;-52
2022/11/22 03:16:32;;;;;;;0.40;0.40;;;;;;;7.40;89.86;94755.56;5092441;28;20421;-52
2022/11/22 03:19:00;;;;;;;0.50;0.30;;;;;;;7.95;94.45;94749.47;5092640;28;20796;-52
2022/11/22 03:21:28;;;;;;;0.43;0.40;;;;;;;7.82;92.78;94747.38;5091523;28;20874;-52
2022/11/22 03:23:56;;;;;;;0.40;0.30;;;;;;;8.27;93.36;94742.03;5092597;28;20429;-52
2022/11/22 03:26:24;;;;;;;0.30;0.30;;;;;;;8.54;96.41;94741.69;5092496;28;20547;-52
2022/11/22 03:28:53;;;;;;;0.30;0.20;;;;;;;8.70;91.79;94732.63;5091898;28;20563;-52
2022/11/22 03:31:23;;;;;;;0.30;0.30;;;;;;;8.05;86.95;94748.66;5092325;28;20429;-52
2022/11/22 03:33:51;;;;;;;0.40;0.30;;;;;;;8.66;100.00;94752.75;5092023;28;20428;-52
2022/11/22 03:36:19;;;;;;;0.40;0.30;;;;;;;8.84;100.00;94748.69;5092183;28;20432;-52
2022/11/22 03:38:47;;;;;;;0.60;0.47;;;;;;;7.60;94.63;94760.84;5092097;28;20421;-52
2022/11/22 03:41:16;;;;;;;0.40;0.23;;;;;;;7.42;97.40;94769.28;5091662;28;20519;-52
2022/11/22 03:43:44;;;;;;;0.30;0.30;;;;;;;7.85;99.37;94772.44;5092340;28;20439;-52
2022/11/22 03:46:15;;;;;;;0.30;0.20;;;;;;;8.35;100.00;94774.25;5091962;28;20992;-52
2022/11/22 03:48:44;;;;;;;0.40;0.40;;;;;;;8.42;93.44;94769.47;5092285;28;20517;-53
2022/11/22 03:51:13;;;;;;;0.30;0.30;;;;;;;7.79;90.99;94762.94;5092231;28;20447;-53
2022/11/22 03:53:41;;;;;;;0.30;0.20;;;;;;;8.28;89.61;94787.72;5091970;28;20413;-52
2022/11/22 03:56:10;;;;;;;0.30;0.20;;;;;;;8.02;89.87;94797.47;5092035;28;20425;-52
2022/11/22 03:58:38;;;;;;;0.30;0.20;;;;;;;8.41;88.35;94800.38;5092090;28;20437;-52
2022/11/22 04:01:06;;;;;;;0.30;0.20;;;;;;;8.45;87.83;94808.56;5091834;28;20820;-52
2022/11/22 04:03:42;;;;;;;0.30;0.20;;;;;;;8.66;91.57;94821.44;5092176;28;20473;-52
2022/11/22 04:06:11;;;;;;;0.30;0.20;;;;;;;8.66;89.02;94829.34;5092087;28;20559;-52
2022/11/22 04:08:40;;;;;;;0.30;0.20;;;;;;;8.72;90.47;94825.66;5091692;28;20435;-52
2022/11/22 04:11:08;;;;;;;0.33;0.27;;;;;;;8.71;98.13;94836.47;5091731;28;20428;-53
2022/11/22 04:16:22;;;;;;;0.53;0.40;;;;;;;8.56;90.31;94834.66;5091717;28;20433;-53
2022/11/22 04:18:50;;;;;;;0.40;0.30;;;;;;;8.68;97.17;94839.63;5091199;28;20933;-52
2022/11/22 04:21:34;;;;;;;0.70;0.70;;;;;;;8.39;90.20;94842.09;5091667;28;20439;-52
2022/11/22 04:26:49;;;;;;;0.47;0.40;;;;;;;6.84;95.99;94857.38;5091389;28;20570;-52
2022/11/22 04:29:18;;;;;;;0.87;0.87;;;;;;;6.82;98.71;94858.69;5091599;28;20454;-52
2022/11/22 04:34:34;;;;;;;0.47;0.40;;;;;;;6.93;93.48;94791.84;5094938;28;20432;-52
2022/11/22 04:37:04;;;;;;;3.33;0.30;;;;;;;6.82;93.18;94870.03;5095581;28;20427;-52
2022/11/22 04:39:33;;;;;;;0.33;0.27;;;;;;;7.31;92.47;94859.16;5095469;28;20435;-53
2022/11/22 04:44:47;;;;;;;22.33;1.80;;;;;;;7.26;91.63;94878.34;5095624;28;20431;-53
2022/11/22 04:47:57;;;;;;;0.40;0.30;;;;;;;7.21;91.00;94867.78;5095048;28;20513;-53
2022/11/22 04:52:52;;;;;;;3.80;0.90;;;;;;;7.29;92.03;94892.84;5094944;28;20439;-52
2022/11/22 04:52:57;;;;;;;0.77;0.57;;;;;;;6.63;93.22;94899.69;5095357;28;20523;-52
2022/11/22 04:55:25;;;;;;;2.40;0.43;;;;;;;6.19;100.00;94892.00;5095274;28;20515;-52
2022/11/22 04:57:54;;;;;;;0.40;0.40;;;;;;;6.19;100.00;94889.38;5095282;28;20423;-53
2022/11/22 05:00:27;;;;;;;0.47;0.37;;;;;;;6.71;99.89;94893.91;5095119;28;20459;-52
2022/11/22 05:02:56;;;;;;;0.40;0.30;;;;;;;6.75;96.25;94902.91;5095009;28;20417;-52
2022/11/22 05:05:25;;;;;;;0.70;0.70;;;;;;;6.45;96.67;94910.63;5094824;28;20978;-53
2022/11/22 05:07:53;;;;;;;1.07;0.40;;;;;;;6.46;97.13;94917.44;5094450;28;20827;-51
2022/11/22 05:10:23;;;;;;;1.57;1.47;;;;;;;6.35;98.99;94921.84;5095120;28;20429;-52
2022/11/22 05:12:54;;;;;;;0.40;0.30;;;;;;;6.58;98.10;94907.56;5094576;28;20796;-52
2022/11/22 05:15:23;;;;;;;1.27;0.60;;;;;;;6.76;97.54;94918.44;5094374;28;20992;-52
2022/11/22 05:17:51;;;;;;;2.30;1.33;;;;;;;6.71;95.33;94913.16;5094710;28;20436;-52
2022/11/22 05:20:19;;;;;;;0.60;0.60;;;;;;;6.82;94.32;94922.69;5094158;28;20439;-52
2022/11/22 05:25:35;;;;;;;1.07;0.97;;;;;;;6.57;94.66;94925.19;5094232;28;20984;-53
2022/11/22 05:28:03;;;;;;;0.40;0.30;;;;;;;6.82;93.55;94922.69;5094163;28;20583;-52
2022/11/22 05:30:31;;;;;;;1.03;0.30;;;;;;;6.98;93.52;94931.50;5094658;28;20425;-53
2022/11/22 05:32:59;;;;;;;0.40;0.40;;;;;;;7.11;92.69;94932.88;5094243;28;20508;-53
2022/11/22 05:35:28;;;;;;;1.07;1.07;;;;;;;7.13;91.56;94941.31;5094432;28;20417;-53
2022/11/22 05:37:56;;;;;;;1.23;1.13;;;;;;;6.57;92.18;94948.06;5094044;28;20924;-51
2022/11/22 05:40:25;;;;;;;1.50;1.40;;;;;;;6.44;96.26;94940.59;5094027;28;20519;-52
2022/11/22 05:42:55;;;;;;;1.83;1.73;;;;;;;6.20;100.00;94940.16;5093679;28;20436;-52
2022/11/22 05:45:24;;;;;;;6.87;3.13;;;;;;;5.99;100.00;94949.72;5093477;28;20435;-52
2022/11/22 05:47:52;;;;;;;2.87;2.60;;;;;;;6.40;100.00;94950.84;5094182;28;20894;-52
2022/11/22 05:50:21;;;;;;;3.10;2.83;;;;;;;6.87;100.00;94945.63;5093795;28;20427;-52
2022/11/22 05:52:49;;;;;;;1.53;1.43;;;;;;;7.16;92.40;94960.00;5093802;28;20508;-52
2022/11/22 05:55:17;;;;;;;4.53;1.50;;;;;;;7.11;91.43;94964.50;5093971;28;20529;-53
2022/11/22 05:57:45;;;;;;;3.17;0.80;;;;;;;6.57;93.33;94971.78;5094105;28;20421;-51
2022/11/22 06:00:17;;;;;;;2.60;2.40;;;;;;;6.80;93.07;94966.94;5093162;28;20436;-52
2022/11/22 06:02:45;;;;;;;0.57;0.57;;;;;;;7.03;92.48;94963.13;5093010;28;20435;-52
2022/11/22 06:05:13;;;;;;;0.83;0.83;;;;;;;6.72;94.13;94977.16;5093602;28;20429;-52
2022/11/22 06:07:41;;;;;;;0.57;0.57;;;;;;;7.15;93.85;94976.91;5093612;28;20469;-52
2022/11/22 06:10:11;;;;;;;1.57;1.27;;;;;;;7.22;91.81;94974.81;5093449;28;20437;-52
2022/11/22 06:12:39;;;;;;;0.63;0.63;;;;;;;7.67;89.11;94975.00;5093836;28;20432;-52
2022/11/22 06:15:08;;;;;;;2.33;1.00;;;;;;;8.41;84.94;94998.41;5093076;28;21128;-52
2022/11/22 06:17:38;;;;;;;2.90;2.17;;;;;;;8.46;83.09;94989.69;5093626;28;20421;-53
2022/11/22 06:20:07;;;;;;;0.60;0.60;;;;;;;8.74;84.42;94989.16;5093371;28;20444;-52
2022/11/22 06:22:36;;;;;;;0.73;0.73;;;;;;;9.17;82.22;94985.94;5093092;28;20464;-52
2022/11/22 06:25:05;;;;;;;0.70;0.60;;;;;;;9.54;79.81;94991.66;5093157;28;20786;-52
2022/11/22 06:27:33;;;;;;;1.33;1.33;;;;;;;10.47;74.19;94989.06;5092761;28;20492;-53
2022/11/22 06:30:01;;;;;;;2.07;1.97;;;;;;;10.62;74.63;94994.25;5093100;28;20440;-52
2022/11/22 06:32:32;;;;;;;2.50;2.40;;;;;;;10.61;72.61;95011.22;5093340;28;20439;-52
2022/11/22 06:35:03;;;;;;;0.50;0.50;;;;;;;11.12;70.37;95019.56;5092251;28;20438;-53
2022/11/22 06:37:32;;;;;;;2.73;1.30;;;;;;;12.14;66.46;95027.22;5092911;28;20512;-53
2022/11/22 06:40:00;;;;;;;1.70;1.37;;;;;;;11.86;66.50;95026.25;5092729;28;20428;-53
2022/11/22 06:42:28;;;;;;;4.53;1.60;;;;;;;11.86;66.32;95032.34;5093198;28;20458;-54
2022/11/22 06:44:57;;;;;;;3.80;2.10;;;;;;;12.15;65.82;95040.22;5092839;28;20430;-54
2022/11/22 06:47:25;;;;;;;2.37;2.27;;;;;;;12.29;65.31;95038.44;5092593;28;20559;-54
2022/11/22 06:49:53;;;;;;;6.33;1.37;;;;;;;12.51;65.66;95043.97;5092124;28;20431;-55
2022/11/22 06:52:23;;;;;;;0.77;0.77;;;;;;;13.06;63.27;95038.88;5092677;28;20471;-55
2022/11/22 06:54:51;;;;;;;1.07;0.97;;;;;;;13.26;61.57;95026.06;5092604;28;20507;-55
2022/11/22 06:57:21;;;;;;;2.70;2.60;;;;;;;13.48;60.63;95029.97;5092938;28;20417;-56
2022/11/22 06:59:49;;;;;;;1.27;1.17;;;;;;;14.61;56.49;95021.81;5092587;28;20426;-57
2022/11/22 07:02:17;;;;;;;4.30;0.50;;;;;;;15.11;56.64;95033.16;5092789;28;20443;-57
2022/11/22 07:04:45;;;;;;;0.70;0.60;;;;;;;14.37;55.36;95020.50;5092587;28;20445;-56
2022/11/22 07:07:35;;;;;;;0.50;0.40;;;;;;;14.14;56.36;95032.16;5092286;28;20539;-56
2022/11/22 07:10:04;;;;;;;1.77;1.70;;;;;;;14.40;56.87;95025.22;5092194;28;20440;-56
2022/11/22 07:12:32;;;;;;;1.43;1.33;;;;;;;14.17;56.11;95015.53;5092570;28;20803;-55
2022/11/22 07:15:00;;;;;;;1.03;1.03;;;;;;;14.22;56.34;95013.56;5092130;28;20442;-55
2022/11/22 07:17:28;;;;;;;0.47;0.33;;;;;;;14.92;55.98;95008.56;5092493;28;20439;-54
2022/11/22 07:19:57;;;;;;;0.73;0.73;;;;;;;15.50;54.46;95005.00;5092511;28;20459;-52
2022/11/22 07:22:25;;;;;;;1.90;0.87;;;;;;;15.56;53.14;95003.78;5092558;28;20436;-54
2022/11/22 07:24:55;;;;;;;4.43;1.27;;;;;;;15.95;52.94;95006.44;5092378;28;20439;-53
2022/11/22 07:27:23;;;;;;;1.53;1.30;;;;;;;16.24;52.59;94997.88;5091953;28;20489;-53
2022/11/22 07:29:51;;;;;;;2.37;2.17;;;;;;;16.33;52.26;94996.78;5091902;28;20440;-54
2022/11/22 07:32:19;;;;;;;0.70;0.67;;;;;;;16.66;51.33;94985.66;5092063;28;20435;-54
2022/11/22 07:34:48;;;;;;;1.33;1.33;;;;;;;17.01;48.58;94984.53;5091956;28;20516;-54
2022/11/22 07:37:16;;;;;;;1.20;1.10;;;;;;;17.26;48.03;94985.56;5091495;28;20442;-55
2022/11/22 07:39:44;;;;;;;1.03;0.83;;;;;;;17.27;49.29;94992.50;5092214;28;20921;-55
2022/11/22 07:42:14;;;;;;;1.13;0.90;;;;;;;17.98;45.63;94988.19;5092146;28;20462;-55
2022/11/22 07:44:42;;;;;;;0.73;0.73;;;;;;;17.92;45.93;94998.31;5091882;28;20963;-55
2022/11/22 07:47:10;;;;;;;2.57;2.47;;;;;;;19.14;44.16;94986.44;5091863;28;20434;-55
2022/11/22 07:49:39;;;;;;;1.93;1.33;;;;;;;18.44;44.06;94982.72;5091416;28;20532;-55
2022/11/22 07:52:07;;;;;;;1.23;1.03;;;;;;;18.21;44.05;94979.56;5090554;28;20444;-56
2022/11/22 07:54:35;;;;;;;1.47;0.50;;;;;;;18.75;44.89;94987.72;5091815;28;20501;-56
2022/11/22 07:57:04;;;;;;;3.87;0.87;;;;;;;18.56;45.41;94998.91;5091916;28;20440;-56
2022/11/22 07:59:33;;;;;;;1.57;1.50;;;;;;;18.50;44.15;95002.91;5091741;28;20947;-56
2022/11/22 08:02:02;;;;;;;1.50;1.40;;;;;;;17.34;45.62;94990.91;5092176;28;20449;-56
2022/11/22 08:04:30;;;;;;;0.50;0.47;;;;;;;17.79;43.98;94993.94;5091729;28;20421;-56
2022/11/22 08:06:58;;;;;;;0.70;0.50;;;;;;;18.37;44.08;94987.78;5092927;28;20433;-56
2022/11/22 08:09:27;;;;;;;0.40;0.30;;;;;;;18.57;42.86;94987.06;5096081;28;20480;-56
2022/11/22 08:11:58;;;;;;;0.60;0.40;;;;;;;19.72;44.32;94971.91;5095938;28;20437;-56
2022/11/22 08:14:27;;;;;;;0.40;0.30;;;;;;;20.08;41.07;94961.97;5095804;28;20456;-55
2022/11/22 08:16:57;;;;;;;0.40;0.30;;;;;;;18.88;41.94;94957.13;5095700;28;20441;-56
2022/11/22 08:19:26;;;;;;;0.40;0.30;;;;;;;18.55;43.07;94969.69;5095571;28;20519;-56
2022/11/22 08:21:55;;;;;;;0.97;0.97;;;;;;;18.73;43.85;94963.88;5095581;28;20435;-57
2022/11/22 08:24:25;;;;;;;0.40;0.30;;;;;;;17.38;45.16;94969.66;5095889;28;20413;-59
2022/11/22 08:26:54;;;;;;;0.40;0.20;;;;;;;16.61;46.61;94946.47;5094841;28;20479;-58
2022/11/22 08:29:22;;;;;;;2.30;0.57;;;;;;;15.41;48.56;94956.06;5095175;28;20843;-58
2022/11/22 08:31:50;;;;;;;0.50;0.30;;;;;;;16.34;49.17;94968.91;5095724;28;20522;-59
2022/11/22 08:34:20;;;;;;;0.70;0.63;;;;;;;16.21;48.22;94972.53;5095248;28;20432;-59
2022/11/22 08:36:48;;;;;;;0.50;0.40;;;;;;;16.12;48.22;94962.91;5095326;28;20913;-60
2022/11/22 08:39:17;;;;;;;0.40;0.30;;;;;;;16.29;49.89;94947.66;5098546;28;20510;-60
2022/11/22 08:41:45;;;;;;;0.50;0.40;;;;;;;15.97;49.62;94941.97;5115700;27;20416;-61
2022/11/22 08:44:13;;;;;;;0.60;0.60;;;;;;;16.16;48.59;94932.56;5115785;28;20490;-61
2022/11/22 08:46:41;;;;;;;0.40;0.20;;;;;;;15.30;49.24;94938.75;5115463;28;20428;-63
2022/11/22 08:49:11;;;;;;;0.40;0.40;;;;;;;14.93;50.85;94937.28;5115486;28;20503;-63
2022/11/22 08:51:43;;;;;;;0.40;0.30;;;;;;;15.19;49.09;94928.31;5115527;28;20436;-63
2022/11/22 08:54:12;;;;;;;0.40;0.30;;;;;;;15.47;50.09;94925.47;5115417;28;20420;-65
2022/11/22 08:56:41;;;;;;;1.23;0.63;;;;;;;15.62;50.03;94930.41;5123225;28;20435;-65
2022/11/22 08:59:09;;;;;;;0.67;0.67;;;;;;;15.24;51.75;94925.53;5115690;28;20408;-65
2022/11/22 09:01:37;;;;;;;0.70;0.70;;;;;;;15.01;51.11;94923.19;5115155;28;20442;-64
2022/11/22 09:04:06;;;;;;;0.70;0.70;;;;;;;16.22;50.49;94927.84;5115618;28;20544;-64
2022/11/22 09:06:34;;;;;;;1.03;1.03;;;;;;;16.36;49.94;94925.81;5115448;27;20427;-64
2022/11/22 09:09:23;;;;;;;0.60;0.40;;;;;;;16.11;47.94;94926.59;5114820;28;20494;-64
2022/11/22 09:12:08;;;;;;;0.60;0.60;;;;;;;15.07;50.32;94922.78;5115238;28;20416;-65
2022/11/22 09:14:36;;;;;;;0.40;0.30;;;;;;;15.03;50.70;94921.78;5115070;28;20801;-65
2022/11/22 09:17:06;;;;;;;0.47;0.30;;;;;;;15.39;51.04;94918.97;5115023;28;20823;-65
2022/11/22 09:19:34;;;;;;;1.43;0.87;;;;;;;15.31;50.76;94932.28;5113465;28;20784;-64
2022/11/22 09:22:02;;;;;;;0.40;0.20;;;;;;;15.04;51.29;94928.72;5114926;28;20420;-65
2022/11/22 09:24:32;;;;;;;0.40;0.20;;;;;;;15.05;50.14;94934.84;5115184;28;20792;-64
2022/11/22 09:27:00;;;;;;;0.53;0.50;;;;;;;15.40;49.33;94931.25;5114871;28;20419;-65
2022/11/22 09:29:28;;;;;;;2.53;0.37;;;;;;;15.44;50.08;94939.41;5114876;27;20874;-65
2022/11/22 09:31:57;;;;;;;0.40;0.20;;;;;;;16.23;49.80;94940.13;5114900;27;20419;-66
2022/11/22 09:34:25;;;;;;;0.40;0.20;;;;;;;16.05;46.98;94931.28;5114630;28;20477;-65
2022/11/22 09:36:53;;;;;;;0.40;0.20;;;;;;;16.57;47.77;94934.81;5114158;28;20415;-65
2022/11/22 09:39:22;;;;;;;0.40;0.30;;;;;;;16.30;47.94;94927.84;5114827;28;20863;-65
2022/11/22 09:42:32;;;;;;;0.40;0.30;;;;;;;16.32;49.69;94927.53;5114495;28;20788;-65
2022/11/22 09:45:29;;;;;;;0.40;0.20;;;;;;;15.51;47.88;94916.53;5114672;28;20427;-67
2022/11/22 09:48:09;;;;;;;0.40;0.20;;;;;;;15.17;48.64;94913.72;5108427;28;20538;-68
2022/11/22 09:50:48;;;;;;;1.00;1.00;;;;;;;15.49;50.20;94912.59;5114683;28;20469;-68
2022/11/22 09:53:22;;;;;;;0.40;0.30;;;;;;;15.69;51.25;94901.34;5114284;27;20427;-68
2022/11/22 09:55:54;;;;;;;0.40;0.30;;;;;;;15.92;47.75;94908.16;5114250;28;20428;-65
2022/11/22 09:58:29;;;;;;;0.40;0.40;;;;;;;16.43;48.27;94902.84;5114304;28;20469;-64
2022/11/22 10:01:06;;;;;;;1.17;1.03;;;;;;;15.89;48.66;94895.41;5114435;28;20514;-65
2022/11/22 10:03:44;;;;;;;1.50;0.80;;;;;;;15.69;47.79;94890.66;5113856;28;20430;-65
2022/11/22 10:06:18;;;;;;;0.40;0.30;;;;;;;15.47;49.12;94888.88;5113879;28;20435;-66
2022/11/22 10:08:58;;;;;;;0.93;0.63;;;;;;;16.12;48.54;94891.50;5112979;28;20986;-65
2022/11/22 10:11:35;;;;;;;0.43;0.40;;;;;;;15.54;48.09;94899.09;5113584;28;20907;-63
2022/11/22 10:14:13;;;;;;;0.40;0.20;;;;;;;15.40;47.81;94899.19;5113125;28;20458;-66
2022/11/22 10:16:50;;;;;;;0.70;0.70;;;;;;;15.66;47.93;94899.31;5113219;27;20449;-67
2022/11/22 10:19:27;;;;;;;0.60;0.40;;;;;;;15.51;48.72;94892.50;5113740;27;20946;-65
2022/11/22 10:21:56;;;;;;;0.60;0.30;;;;;;;15.95;49.40;94880.00;5113445;28;20437;-65
2022/11/22 10:24:24;;;;;;;0.40;0.40;;;;;;;16.05;48.26;94890.41;5113659;28;20439;-64
2022/11/22 10:26:54;;;;;;;0.40;0.30;;;;;;;15.71;48.86;94869.78;5113304;28;20423;-63
2022/11/22 10:29:35;;;;;;;0.40;0.20;;;;;;;15.86;48.75;94870.09;5113027;28;20986;-64
2022/11/22 10:32:13;;;;;;;1.03;1.03;;;;;;;15.69;47.75;94874.63;5113457;28;20434;-63
2022/11/22 10:34:56;;;;;;;0.30;0.20;;;;;;;15.83;48.02;94833.34;5113706;28;20458;-64
2022/11/22 10:37:34;;;;;;;0.40;0.30;;;;;;;16.19;47.71;94854.38;5113245;28;20438;-63
2022/11/22 10:40:11;;;;;;;0.40;0.27;;;;;;;15.90;50.22;94851.56;5113510;28;20424;-63
2022/11/22 10:42:57;;;;;;;0.70;0.50;;;;;;;16.22;48.86;94850.28;5113444;27;20426;-61
2022/11/22 10:45:33;;;;;;;0.40;0.30;;;;;;;16.72;47.22;94837.22;5113399;27;20415;-59
2022/11/22 10:48:13;;;;;;;0.40;0.20;;;;;;;16.23;49.07;94817.13;5113267;28;20434;-61
2022/11/22 10:50:54;;;;;;;0.60;0.43;;;;;;;15.99;49.38;94809.56;5112944;28;20554;-61
2022/11/22 10:53:36;;;;;;;0.50;0.40;;;;;;;16.54;48.72;94817.75;5113465;28;20446;-64
2022/11/22 10:56:13;;;;;;;0.30;0.20;;;;;;;16.49;47.74;94823.22;5112860;28;20449;-63
2022/11/22 10:58:54;;;;;;;0.37;0.30;;;;;;;16.73;49.71;94804.78;5112998;28;20941;-64
2022/11/22 11:01:33;;;;;;;0.40;0.30;;;;;;;15.45;49.35;94804.81;5113066;27;20816;-64
2022/11/22 11:04:04;;;;;;;4.20;1.00;;;;;;;14.89;49.98;94805.56;5121252;28;20431;-63
2022/11/22 11:06:38;;;;;;;0.40;0.30;;;;;;;14.85;51.46;94813.41;5117113;27;20430;-62
2022/11/22 11:09:34;;;;;;;0.40;0.20;;;;;;;15.33;50.27;94831.31;5112523;28;20534;-61
2022/11/22 11:12:27;;;;;;;0.40;0.30;;;;;;;15.67;50.05;94836.75;5112493;28;20521;-61
2022/11/22 11:15:02;;;;;;;0.37;0.20;;;;;;;15.43;50.71;94833.72;5112834;28;20533;-60
2022/11/22 11:17:35;;;;;;;0.50;0.30;;;;;;;15.49;51.46;94840.50;5112493;28;20522;-59
2022/11/22 11:20:12;;;;;;;0.40;0.30;;;;;;;14.49;51.51;94778.09;5112897;27;20896;-58
2022/11/22 11:22:41;;;;;;;0.50;0.30;;;;;;;15.03;53.52;94800.91;5112685;28;20431;-58
2022/11/22 11:25:32;;;;;;;0.50;0.47;;;;;;;13.84;53.42;94781.25;5112168;28;20446;-57
2022/11/22 11:28:05;;;;;;;0.40;0.30;;;;;;;13.58;54.67;94772.28;5112139;28;20475;-57
2022/11/22 11:30:39;;;;;;;1.17;1.03;;;;;;;13.94;54.61;94762.38;5112601;28;20480;-56
2022/11/22 11:33:18;;;;;;;0.60;0.60;;;;;;;14.04;55.89;94724.03;5112526;28;20980;-57
2022/11/22 11:35:47;;;;;;;0.40;0.30;;;;;;;14.27;54.53;94744.22;5112665;28;20430;-56
2022/11/22 11:38:27;;;;;;;0.50;0.40;;;;;;;13.71;54.35;94757.34;5112440;28;20440;-56
2022/11/22 11:40:55;;;;;;;0.43;0.30;;;;;;;13.83;53.92;94750.41;5111217;28;20434;-56
2022/11/22 11:43:25;;;;;;;0.40;0.30;;;;;;;14.19;53.30;94742.31;5112175;28;20423;-56
2022/11/22 11:45:53;;;;;;;0.53;0.30;;;;;;;14.03;54.17;94749.13;5112118;28;20431;-56
2022/11/22 11:48:29;;;;;;;0.50;0.37;;;;;;;14.46;54.41;94752.03;5112532;28;20863;-56
2022/11/22 11:51:12;;;;;;;0.40;0.30;;;;;;;14.46;52.74;94741.38;5111457;28;20491;-56
2022/11/22 11:53:42;;;;;;;0.40;0.20;;;;;;;14.39;53.40;94733.03;5111880;28;20433;-55
2022/11/22 11:56:35;;;;;;;0.40;0.30;;;;;;;14.30;55.03;94726.84;5112095;28;20922;-55
2022/11/22 11:59:10;;;;;;;0.50;0.40;;;;;;;13.98;53.70;94664.78;5109876;28;20450;-55
2022/11/22 12:01:47;;;;;;;0.40;0.37;;;;;;;14.46;53.36;94734.19;5112216;28;20465;-55
2022/11/22 12:04:21;;;;;;;0.40;0.30;;;;;;;14.86;53.35;94734.16;5111968;28;20468;-55
2022/11/22 12:07:02;;;;;;;0.30;0.20;;;;;;;14.55;54.10;94728.84;5112244;28;20430;-55
2022/11/22 12:09:34;;;;;;;0.40;0.40;;;;;;;14.17;54.30;94730.38;5111828;28;20939;-53